createdAt,value
2022-10-30T00:00:00.299Z,12.36
2022-10-30T00:01:00.289Z,12.28
2022-10-30T00:02:00.492Z,12.31
2022-10-30T00:03:00.846Z,12.35
2022-10-30T00:04:00.294Z,12.32
2022-10-30T00:05:00.263Z,12.42
2022-10-30T00:06:00.252Z,12.39
2022-10-30T00:07:00.245Z,12.47
2022-10-30T00:08:00.785Z,12.39
2022-10-30T00:09:00.231Z,12.47
2022-10-30T00:10:00.255Z,12.39
2022-10-30T00:11:00.214Z,12.37
2022-10-30T00:12:00.211Z,12.37
2022-10-30T00:13:00.199Z,12.31
2022-10-30T00:14:00.193Z,12.32
2022-10-30T00:15:00.213Z,12.32
2022-10-30T00:16:00.175Z,12.28
2022-10-30T00:17:00.167Z,12.25
2022-10-30T00:18:00.656Z,12.29
2022-10-30T00:19:00.165Z,12.27
2022-10-30T00:20:00.173Z,12.40
2022-10-30T00:21:03.239Z,12.36
2022-10-30T00:22:44.124Z,12.35
2022-10-30T00:23:44.119Z,12.32
2022-10-30T00:24:44.135Z,12.35
2022-10-30T00:25:44.106Z,12.18
2022-10-30T00:26:44.100Z,12.06
2022-10-30T00:27:44.090Z,11.91
2022-10-30T00:28:44.079Z,11.95
2022-10-30T00:29:44.100Z,12.09
2022-10-30T00:30:44.066Z,11.97
2022-10-30T00:31:45.229Z,11.99
2022-10-30T00:32:45.214Z,11.95
2022-10-30T00:33:45.209Z,11.90
2022-10-30T00:34:45.229Z,11.94
2022-10-30T00:36:45.182Z,11.80
2022-10-30T00:37:45.177Z,11.81
2022-10-30T00:38:45.167Z,11.80
2022-10-30T00:39:45.189Z,11.81
2022-10-30T00:40:45.153Z,11.97
2022-10-30T00:41:45.149Z,11.94
2022-10-30T00:42:45.139Z,11.90
2022-10-30T00:43:45.136Z,11.88
2022-10-30T00:44:45.149Z,11.84
2022-10-30T00:45:45.138Z,11.87
2022-10-30T00:46:45.113Z,11.88
2022-10-30T00:47:45.123Z,11.87
2022-10-30T00:48:45.096Z,11.78
2022-10-30T00:49:45.112Z,11.81
2022-10-30T00:50:45.086Z,11.80
2022-10-30T00:51:45.071Z,11.80
2022-10-30T00:52:45.069Z,11.83
2022-10-30T00:53:45.055Z,11.73
2022-10-30T00:54:45.080Z,11.81
2022-10-30T00:55:45.039Z,11.77
2022-10-30T00:56:45.034Z,11.86
2022-10-30T00:57:45.032Z,11.83
2022-10-30T00:58:45.023Z,11.77
2022-10-30T00:59:45.038Z,11.87
2022-10-30T01:00:45.007Z,11.90
2022-10-30T01:01:45.178Z,11.90
2022-10-30T01:02:45.107Z,11.84
2022-10-30T01:03:44.988Z,11.78
2022-10-30T01:04:45.008Z,11.88
2022-10-30T01:05:44.972Z,11.72
2022-10-30T01:06:44.959Z,11.84
2022-10-30T01:07:44.954Z,11.80
2022-10-30T01:08:45.008Z,11.77
2022-10-30T01:09:44.958Z,11.65
2022-10-30T01:10:44.925Z,11.66
2022-10-30T01:11:44.915Z,11.69
2022-10-30T01:12:44.919Z,11.69
2022-10-30T01:13:44.900Z,11.81
2022-10-30T01:14:44.920Z,11.69
2022-10-30T01:15:44.888Z,11.77
2022-10-30T01:16:44.879Z,11.73
2022-10-30T01:17:44.873Z,11.73
2022-10-30T01:18:44.861Z,11.60
2022-10-30T01:19:44.879Z,11.69
2022-10-30T01:20:44.852Z,11.63
2022-10-30T01:21:44.836Z,11.77
2022-10-30T01:22:44.827Z,11.59
2022-10-30T01:23:44.829Z,11.59
2022-10-30T01:24:44.835Z,11.68
2022-10-30T01:25:45.811Z,11.62
2022-10-30T01:26:44.806Z,11.72
2022-10-30T01:27:44.802Z,11.63
2022-10-30T01:28:44.803Z,11.54
2022-10-30T01:29:44.802Z,11.50
2022-10-30T01:30:44.782Z,11.68
2022-10-30T01:31:44.783Z,11.68
2022-10-30T01:32:44.758Z,11.72
2022-10-30T01:33:44.755Z,11.65
2022-10-30T01:34:44.776Z,11.80
2022-10-30T01:35:44.733Z,11.66
2022-10-30T01:36:44.727Z,11.72
2022-10-30T01:37:44.727Z,11.70
2022-10-30T01:38:44.714Z,11.78
2022-10-30T01:39:44.740Z,11.69
2022-10-30T01:40:44.696Z,11.66
2022-10-30T01:41:44.693Z,11.80
2022-10-30T01:42:44.684Z,11.80
2022-10-30T01:44:17.324Z,11.69
2022-10-30T01:44:44.695Z,11.65
2022-10-30T01:45:44.664Z,11.60
2022-10-30T01:46:44.655Z,11.73
2022-10-30T01:47:44.646Z,11.65
2022-10-30T01:48:44.640Z,11.60
2022-10-30T01:49:44.656Z,11.59
2022-10-30T01:50:44.641Z,11.55
2022-10-30T01:51:44.607Z,11.60
2022-10-30T01:52:44.594Z,11.65
2022-10-30T01:53:45.597Z,11.68
2022-10-30T01:54:44.622Z,11.69
2022-10-30T01:55:44.582Z,11.51
2022-10-30T01:56:44.588Z,11.48
2022-10-30T01:57:44.568Z,11.60
2022-10-30T01:58:44.556Z,11.55
2022-10-30T01:59:44.571Z,11.59
2022-10-30T02:00:44.600Z,11.55
2022-10-30T02:01:44.628Z,11.45
2022-10-30T02:02:44.606Z,11.50
2022-10-30T02:03:44.530Z,11.52
2022-10-30T02:04:44.540Z,11.43
2022-10-30T02:05:44.504Z,11.52
2022-10-30T02:06:44.504Z,11.40
2022-10-30T02:07:44.493Z,11.44
2022-10-30T02:08:44.486Z,11.30
2022-10-30T02:09:44.502Z,11.32
2022-10-30T02:10:44.467Z,11.25
2022-10-30T02:11:44.456Z,11.22
2022-10-30T02:12:44.455Z,11.27
2022-10-30T02:13:44.440Z,11.25
2022-10-30T02:14:44.459Z,11.18
2022-10-30T02:15:44.423Z,11.26
2022-10-30T02:16:44.420Z,11.35
2022-10-30T02:17:44.421Z,11.29
2022-10-30T02:19:44.417Z,11.35
2022-10-30T02:20:44.394Z,11.33
2022-10-30T02:21:44.409Z,11.37
2022-10-30T02:22:44.424Z,11.33
2022-10-30T02:23:44.368Z,11.45
2022-10-30T02:24:44.382Z,11.44
2022-10-30T02:25:44.355Z,11.45
2022-10-30T02:26:44.340Z,11.47
2022-10-30T02:27:44.330Z,11.51
2022-10-30T02:28:44.309Z,11.52
2022-10-30T02:29:45.342Z,11.41
2022-10-30T02:30:44.320Z,11.40
2022-10-30T02:31:44.308Z,11.52
2022-10-30T02:32:44.305Z,11.45
2022-10-30T02:33:44.301Z,11.45
2022-10-30T02:34:44.316Z,11.50
2022-10-30T02:35:44.269Z,11.41
2022-10-30T02:36:44.246Z,11.51
2022-10-30T02:37:45.253Z,11.48
2022-10-30T02:38:44.248Z,11.48
2022-10-30T02:39:44.237Z,11.45
2022-10-30T02:40:44.261Z,11.47
2022-10-30T02:41:44.227Z,11.45
2022-10-30T02:42:44.217Z,11.40
2022-10-30T02:43:44.214Z,11.40
2022-10-30T02:44:44.213Z,11.32
2022-10-30T02:45:44.218Z,11.40
2022-10-30T02:46:44.187Z,11.45
2022-10-30T02:47:44.171Z,11.51
2022-10-30T02:48:44.171Z,11.50
2022-10-30T02:49:44.156Z,11.45
2022-10-30T02:50:44.186Z,11.57
2022-10-30T02:51:44.150Z,11.59
2022-10-30T02:52:44.136Z,11.45
2022-10-30T02:53:44.128Z,11.45
2022-10-30T02:54:44.130Z,11.36
2022-10-30T02:55:44.141Z,11.57
2022-10-30T02:56:44.103Z,11.41
2022-10-30T02:57:44.121Z,11.45
2022-10-30T02:58:45.092Z,11.47
2022-10-30T02:59:44.083Z,11.47
2022-10-30T03:00:44.102Z,11.37
2022-10-30T03:01:44.156Z,11.45
2022-10-30T03:02:44.122Z,11.54
2022-10-30T03:03:44.067Z,11.45
2022-10-30T03:04:44.042Z,11.50
2022-10-30T03:05:44.059Z,11.44
2022-10-30T03:06:44.037Z,11.47
2022-10-30T03:07:44.024Z,11.50
2022-10-30T03:08:44.009Z,11.43
2022-10-30T03:09:43.999Z,11.48
2022-10-30T03:10:44.027Z,11.41
2022-10-30T03:11:43.993Z,11.47
2022-10-30T03:12:43.980Z,11.35
2022-10-30T03:13:43.976Z,11.51
2022-10-30T03:14:43.971Z,11.48
2022-10-30T03:15:44.001Z,11.36
2022-10-30T03:16:43.957Z,11.41
2022-10-30T03:17:43.953Z,11.37
2022-10-30T03:18:43.940Z,11.40
2022-10-30T03:19:43.949Z,11.33
2022-10-30T03:20:43.981Z,11.30
2022-10-30T03:21:43.910Z,11.29
2022-10-30T03:22:43.921Z,11.33
2022-10-30T03:23:43.897Z,11.29
2022-10-30T03:24:43.888Z,11.29
2022-10-30T03:25:43.911Z,11.27
2022-10-30T03:26:43.877Z,11.32
2022-10-30T03:27:43.872Z,11.25
2022-10-30T03:28:43.857Z,11.27
2022-10-30T03:29:43.852Z,11.32
2022-10-30T03:30:43.865Z,11.30
2022-10-30T03:31:43.830Z,11.27
2022-10-30T03:32:43.824Z,11.35
2022-10-30T03:33:43.818Z,11.40
2022-10-30T03:34:43.806Z,11.29
2022-10-30T03:35:43.821Z,11.29
2022-10-30T03:36:44.795Z,11.30
2022-10-30T03:37:43.783Z,11.36
2022-10-30T03:38:43.776Z,11.29
2022-10-30T03:39:43.782Z,11.30
2022-10-30T03:40:43.822Z,11.27
2022-10-30T03:41:43.755Z,11.15
2022-10-30T03:42:43.747Z,11.32
2022-10-30T03:43:43.743Z,11.33
2022-10-30T03:44:44.741Z,11.35
2022-10-30T03:45:43.768Z,11.25
2022-10-30T03:46:43.771Z,11.22
2022-10-30T03:47:43.719Z,11.25
2022-10-30T03:48:43.705Z,11.23
2022-10-30T03:49:43.694Z,11.23
2022-10-30T03:50:43.724Z,11.19
2022-10-30T03:51:43.679Z,11.07
2022-10-30T03:52:43.677Z,11.12
2022-10-30T03:53:43.679Z,11.08
2022-10-30T03:54:43.656Z,11.04
2022-10-30T03:55:43.643Z,11.08
2022-10-30T03:56:44.670Z,11.17
2022-10-30T03:57:43.648Z,10.96
2022-10-30T03:58:43.635Z,11.04
2022-10-30T03:59:43.618Z,11.11
2022-10-30T04:00:43.619Z,11.08
2022-10-30T04:01:43.896Z,11.10
2022-10-30T04:02:43.596Z,11.04
2022-10-30T04:03:43.589Z,11.10
2022-10-30T04:04:43.585Z,11.11
2022-10-30T04:05:43.585Z,11.05
2022-10-30T04:06:43.614Z,11.12
2022-10-30T04:07:43.568Z,11.02
2022-10-30T04:08:43.581Z,11.14
2022-10-30T04:09:43.542Z,11.10
2022-10-30T04:10:43.590Z,11.07
2022-10-30T04:11:43.550Z,10.97
2022-10-30T04:12:43.520Z,11.04
2022-10-30T04:13:43.518Z,10.97
2022-10-30T04:14:43.510Z,11.04
2022-10-30T04:15:43.534Z,11.02
2022-10-30T04:16:43.517Z,11.05
2022-10-30T04:17:43.484Z,10.94
2022-10-30T04:18:43.473Z,10.96
2022-10-30T04:19:43.457Z,10.92
2022-10-30T04:20:43.459Z,10.81
2022-10-30T04:21:43.473Z,10.87
2022-10-30T04:22:43.454Z,10.84
2022-10-30T04:23:43.435Z,10.84
2022-10-30T04:24:43.430Z,10.84
2022-10-30T04:25:43.423Z,10.82
2022-10-30T04:26:43.444Z,10.79
2022-10-30T04:27:43.434Z,10.87
2022-10-30T04:28:43.428Z,10.79
2022-10-30T04:29:43.426Z,10.76
2022-10-30T04:30:43.388Z,10.79
2022-10-30T04:31:43.412Z,10.68
2022-10-30T04:32:43.363Z,10.67
2022-10-30T04:33:43.354Z,10.63
2022-10-30T04:34:43.349Z,10.68
2022-10-30T04:35:43.355Z,10.75
2022-10-30T04:36:43.370Z,10.63
2022-10-30T04:37:43.330Z,10.60
2022-10-30T04:38:43.326Z,10.75
2022-10-30T04:39:46.306Z,10.67
2022-10-30T04:40:43.302Z,10.69
2022-10-30T04:41:43.344Z,10.61
2022-10-30T04:42:43.288Z,10.61
2022-10-30T04:43:43.279Z,10.60
2022-10-30T04:44:43.275Z,10.63
2022-10-30T04:45:43.286Z,10.63
2022-10-30T04:46:43.259Z,10.67
2022-10-30T04:47:43.307Z,10.60
2022-10-30T04:48:43.243Z,10.61
2022-10-30T04:49:43.235Z,10.60
2022-10-30T04:50:43.232Z,10.71
2022-10-30T04:51:43.244Z,10.74
2022-10-30T04:52:43.224Z,10.69
2022-10-30T04:53:43.225Z,10.67
2022-10-30T04:54:43.201Z,10.59
2022-10-30T04:55:43.188Z,10.57
2022-10-30T04:56:43.210Z,10.41
2022-10-30T04:57:43.169Z,10.26
2022-10-30T04:58:43.250Z,10.10
2022-10-30T04:59:43.154Z,10.10
2022-10-30T05:00:43.146Z,10.17
2022-10-30T05:01:43.242Z,10.04
2022-10-30T05:03:43.265Z,10.10
2022-10-30T05:04:43.115Z,10.10
2022-10-30T05:05:43.106Z,10.15
2022-10-30T05:06:43.113Z,10.09
2022-10-30T05:07:43.115Z,10.12
2022-10-30T05:08:43.084Z,9.97
2022-10-30T05:09:43.072Z,9.91
2022-10-30T05:10:43.072Z,9.92
2022-10-30T05:11:43.080Z,9.92
2022-10-30T05:12:43.086Z,9.87
2022-10-30T05:13:43.047Z,9.86
2022-10-30T05:14:43.050Z,10.01
2022-10-30T05:15:43.027Z,9.94
2022-10-30T05:16:43.022Z,9.95
2022-10-30T05:17:43.032Z,9.79
2022-10-30T05:18:43.010Z,9.77
2022-10-30T05:19:42.996Z,9.79
2022-10-30T05:20:42.989Z,9.72
2022-10-30T05:21:42.983Z,9.72
2022-10-30T05:22:43.001Z,9.69
2022-10-30T05:23:42.968Z,9.73
2022-10-30T05:24:42.958Z,9.68
2022-10-30T05:25:42.955Z,9.80
2022-10-30T05:26:42.975Z,9.83
2022-10-30T05:27:43.016Z,9.68
2022-10-30T05:28:42.929Z,9.48
2022-10-30T05:29:42.925Z,9.51
2022-10-30T05:30:42.911Z,9.55
2022-10-30T05:31:42.904Z,9.68
2022-10-30T05:32:42.929Z,9.68
2022-10-30T05:33:42.894Z,9.69
2022-10-30T05:34:42.885Z,9.72
2022-10-30T05:35:42.885Z,9.73
2022-10-30T05:36:42.882Z,9.72
2022-10-30T05:37:42.948Z,9.59
2022-10-30T05:38:42.856Z,9.54
2022-10-30T05:39:42.849Z,9.55
2022-10-30T05:40:42.844Z,9.55
2022-10-30T05:41:42.836Z,9.58
2022-10-30T05:42:42.857Z,9.64
2022-10-30T05:43:42.815Z,9.59
2022-10-30T05:44:59.753Z,9.58
2022-10-30T05:45:44.814Z,9.64
2022-10-30T05:46:42.885Z,9.66
2022-10-30T05:47:42.815Z,9.66
2022-10-30T05:48:42.783Z,9.80
2022-10-30T05:49:42.773Z,9.69
2022-10-30T05:50:42.770Z,9.64
2022-10-30T05:51:42.766Z,9.61
2022-10-30T05:52:42.792Z,9.55
2022-10-30T05:53:42.758Z,9.76
2022-10-30T05:54:42.745Z,9.69
2022-10-30T05:55:42.738Z,9.66
2022-10-30T05:56:46.599Z,9.62
2022-10-30T05:57:42.748Z,9.50
2022-10-30T05:58:42.718Z,9.58
2022-10-30T05:59:42.711Z,9.48
2022-10-30T06:00:42.706Z,9.59
2022-10-30T06:02:42.780Z,9.61
2022-10-30T06:03:42.701Z,9.69
2022-10-30T06:04:42.679Z,9.74
2022-10-30T06:05:42.663Z,9.74
2022-10-30T06:06:42.645Z,9.66
2022-10-30T06:07:42.689Z,9.73
2022-10-30T06:08:42.633Z,9.61
2022-10-30T06:09:42.639Z,9.58
2022-10-30T06:10:42.630Z,9.48
2022-10-30T06:11:42.620Z,9.61
2022-10-30T06:12:42.634Z,9.61
2022-10-30T06:13:42.595Z,9.69
2022-10-30T06:14:42.585Z,9.64
2022-10-30T06:15:42.581Z,9.68
2022-10-30T06:16:42.593Z,9.69
2022-10-30T06:17:42.594Z,9.62
2022-10-30T06:18:42.561Z,9.69
2022-10-30T06:19:42.551Z,9.69
2022-10-30T06:20:42.534Z,9.72
2022-10-30T06:21:42.537Z,9.79
2022-10-30T06:22:42.555Z,9.64
2022-10-30T06:23:42.520Z,9.73
2022-10-30T06:24:42.505Z,9.72
2022-10-30T06:25:42.499Z,9.69
2022-10-30T06:26:42.491Z,9.73
2022-10-30T06:27:42.517Z,9.69
2022-10-30T06:28:42.478Z,9.80
2022-10-30T06:29:42.471Z,9.77
2022-10-30T06:30:42.462Z,9.74
2022-10-30T06:31:42.449Z,9.80
2022-10-30T06:32:42.475Z,9.74
2022-10-30T06:33:42.438Z,9.79
2022-10-30T06:34:42.439Z,9.91
2022-10-30T06:35:42.436Z,9.94
2022-10-30T06:36:42.434Z,9.97
2022-10-30T06:37:42.441Z,9.89
2022-10-30T06:38:42.413Z,9.83
2022-10-30T06:39:42.401Z,9.80
2022-10-30T06:40:42.388Z,9.82
2022-10-30T06:41:42.407Z,9.84
2022-10-30T06:42:42.401Z,9.77
2022-10-30T06:43:42.361Z,9.79
2022-10-30T06:44:42.352Z,9.84
2022-10-30T06:45:42.360Z,9.84
2022-10-30T06:46:42.340Z,9.89
2022-10-30T06:47:42.359Z,9.92
2022-10-30T06:48:42.328Z,10.02
2022-10-30T06:49:42.325Z,9.95
2022-10-30T06:50:42.312Z,9.84
2022-10-30T06:51:42.305Z,9.92
2022-10-30T06:52:42.322Z,9.89
2022-10-30T06:53:42.292Z,9.86
2022-10-30T06:54:42.279Z,9.97
2022-10-30T06:55:42.275Z,9.89
2022-10-30T06:56:42.269Z,9.79
2022-10-30T06:57:42.348Z,9.77
2022-10-30T06:58:42.245Z,9.77
2022-10-30T06:59:42.248Z,9.87
2022-10-30T07:00:42.298Z,9.80
2022-10-30T07:01:42.309Z,9.95
2022-10-30T07:02:42.257Z,10.01
2022-10-30T07:03:42.222Z,9.97
2022-10-30T07:04:42.200Z,9.94
2022-10-30T07:05:42.196Z,9.91
2022-10-30T07:06:42.193Z,9.87
2022-10-30T07:07:42.215Z,9.97
2022-10-30T07:08:42.174Z,9.91
2022-10-30T07:09:42.172Z,9.95
2022-10-30T07:10:42.169Z,9.95
2022-10-30T07:11:42.156Z,10.05
2022-10-30T07:12:42.181Z,10.10
2022-10-30T07:13:42.146Z,10.22
2022-10-30T07:14:42.133Z,10.16
2022-10-30T07:16:42.111Z,10.33
2022-10-30T07:17:42.140Z,10.22
2022-10-30T07:18:42.103Z,10.28
2022-10-30T07:19:42.091Z,10.31
2022-10-30T07:20:42.081Z,10.28
2022-10-30T07:21:42.082Z,10.28
2022-10-30T07:22:42.100Z,10.23
2022-10-30T07:23:42.056Z,10.30
2022-10-30T07:24:42.054Z,10.26
2022-10-30T07:25:42.039Z,10.37
2022-10-30T07:26:42.040Z,10.34
2022-10-30T07:27:42.055Z,10.42
2022-10-30T07:28:42.023Z,10.48
2022-10-30T07:29:42.015Z,10.41
2022-10-30T07:30:42.013Z,10.40
2022-10-30T07:31:49.667Z,10.54
2022-10-30T07:32:44.019Z,10.53
2022-10-30T07:33:41.982Z,10.59
2022-10-30T07:34:41.974Z,10.48
2022-10-30T07:35:41.966Z,10.60
2022-10-30T07:36:41.959Z,10.49
2022-10-30T07:37:41.985Z,10.60
2022-10-30T07:38:41.949Z,10.64
2022-10-30T07:39:41.937Z,10.49
2022-10-30T07:40:41.939Z,10.63
2022-10-30T07:41:45.985Z,10.56
2022-10-30T07:42:43.958Z,10.64
2022-10-30T07:43:42.914Z,10.64
2022-10-30T07:45:15.927Z,10.67
2022-10-30T07:45:41.899Z,10.72
2022-10-30T07:46:41.901Z,10.78
2022-10-30T07:47:41.899Z,10.92
2022-10-30T07:48:42.873Z,10.87
2022-10-30T07:49:41.864Z,11.07
2022-10-30T07:50:41.853Z,11.02
2022-10-30T07:51:41.853Z,11.19
2022-10-30T07:52:41.839Z,11.11
2022-10-30T07:53:41.861Z,11.11
2022-10-30T07:54:41.822Z,11.05
2022-10-30T07:55:41.820Z,11.15
2022-10-30T07:56:41.828Z,11.25
2022-10-30T07:57:42.897Z,11.29
2022-10-30T07:58:45.405Z,11.40
2022-10-30T07:59:42.837Z,11.60
2022-10-30T08:00:41.779Z,11.59
2022-10-30T08:01:41.851Z,11.69
2022-10-30T08:02:41.927Z,11.59
2022-10-30T08:03:41.768Z,11.70
2022-10-30T08:04:41.745Z,11.80
2022-10-30T08:05:41.739Z,11.87
2022-10-30T08:06:41.736Z,12.03
2022-10-30T08:07:41.728Z,12.09
2022-10-30T08:08:43.356Z,12.24
2022-10-30T08:09:42.713Z,12.13
2022-10-30T08:10:41.699Z,12.24
2022-10-30T08:11:41.700Z,12.24
2022-10-30T08:12:41.688Z,12.37
2022-10-30T08:13:41.701Z,12.53
2022-10-30T08:14:41.670Z,12.49
2022-10-30T08:15:41.667Z,12.67
2022-10-30T08:16:41.704Z,12.76
2022-10-30T08:17:41.648Z,12.85
2022-10-30T08:18:41.664Z,12.98
2022-10-30T08:19:41.631Z,13.00
2022-10-30T08:20:41.650Z,13.01
2022-10-30T08:21:41.617Z,13.04
2022-10-30T08:22:41.606Z,13.15
2022-10-30T08:23:41.661Z,13.33
2022-10-30T08:24:41.593Z,13.46
2022-10-30T08:25:41.587Z,13.62
2022-10-30T08:26:41.581Z,13.67
2022-10-30T08:27:41.577Z,13.56
2022-10-30T08:28:41.595Z,13.65
2022-10-30T08:29:41.558Z,13.74
2022-10-30T08:30:41.559Z,13.81
2022-10-30T08:31:41.547Z,13.99
2022-10-30T08:32:41.540Z,14.05
2022-10-30T08:33:41.559Z,14.14
2022-10-30T08:34:41.519Z,14.26
2022-10-30T08:35:41.512Z,14.28
2022-10-30T08:36:43.974Z,14.35
2022-10-30T08:37:42.501Z,14.37
2022-10-30T08:38:41.518Z,14.59
2022-10-30T08:39:41.487Z,14.54
2022-10-30T08:40:41.496Z,14.66
2022-10-30T08:41:41.469Z,14.77
2022-10-30T08:42:41.457Z,14.73
2022-10-30T08:43:41.478Z,14.81
2022-10-30T08:44:41.444Z,14.85
2022-10-30T08:45:41.435Z,14.96
2022-10-30T08:46:41.433Z,15.03
2022-10-30T08:47:41.422Z,15.19
2022-10-30T08:48:41.443Z,15.22
2022-10-30T08:49:41.406Z,15.29
2022-10-30T08:50:41.400Z,15.25
2022-10-30T08:51:41.391Z,15.44
2022-10-30T08:52:41.379Z,15.67
2022-10-30T08:53:41.402Z,15.65
2022-10-30T08:54:41.370Z,15.72
2022-10-30T08:55:41.361Z,15.65
2022-10-30T08:56:41.354Z,15.72
2022-10-30T08:57:41.345Z,15.75
2022-10-30T08:58:41.366Z,15.76
2022-10-30T08:59:41.333Z,15.68
2022-10-30T09:00:41.324Z,15.73
2022-10-30T09:01:41.404Z,15.73
2022-10-30T09:02:41.502Z,15.79
2022-10-30T09:03:41.330Z,15.77
2022-10-30T09:04:41.314Z,15.88
2022-10-30T09:05:41.284Z,15.84
2022-10-30T09:06:41.286Z,15.84
2022-10-30T09:07:41.280Z,15.98
2022-10-30T09:08:41.288Z,16.00
2022-10-30T09:09:41.254Z,16.08
2022-10-30T09:10:41.250Z,16.05
2022-10-30T09:11:41.241Z,16.02
2022-10-30T09:12:41.239Z,16.04
2022-10-30T09:13:41.254Z,16.13
2022-10-30T09:14:41.218Z,16.10
2022-10-30T09:15:41.211Z,16.20
2022-10-30T09:16:41.216Z,16.13
2022-10-30T09:17:41.195Z,16.20
2022-10-30T09:18:41.214Z,16.26
2022-10-30T09:19:41.202Z,16.46
2022-10-30T09:20:41.176Z,16.39
2022-10-30T09:21:41.168Z,16.43
2022-10-30T09:22:41.157Z,16.46
2022-10-30T09:23:41.176Z,16.57
2022-10-30T09:24:41.143Z,16.54
2022-10-30T09:25:41.140Z,16.64
2022-10-30T09:26:41.129Z,16.49
2022-10-30T09:27:41.117Z,16.66
2022-10-30T09:28:41.141Z,16.66
2022-10-30T09:29:41.112Z,16.68
2022-10-30T09:30:41.104Z,16.76
2022-10-30T09:31:41.091Z,16.79
2022-10-30T09:32:41.077Z,16.87
2022-10-30T09:33:41.100Z,16.99
2022-10-30T09:34:41.079Z,16.99
2022-10-30T09:35:41.058Z,16.94
2022-10-30T09:36:41.049Z,17.16
2022-10-30T09:37:41.042Z,17.23
2022-10-30T09:38:41.061Z,17.27
2022-10-30T09:39:41.026Z,17.30
2022-10-30T09:40:41.018Z,17.27
2022-10-30T09:41:41.019Z,17.34
2022-10-30T09:42:40.999Z,17.48
2022-10-30T09:43:41.018Z,17.24
2022-10-30T09:44:40.988Z,17.30
2022-10-30T09:45:40.982Z,17.38
2022-10-30T09:46:40.969Z,17.49
2022-10-30T09:47:40.964Z,17.39
2022-10-30T09:48:40.985Z,17.56
2022-10-30T09:49:40.947Z,17.56
2022-10-30T09:50:40.944Z,17.72
2022-10-30T09:51:40.933Z,17.83
2022-10-30T09:52:40.927Z,17.70
2022-10-30T09:53:40.961Z,17.79
2022-10-30T09:54:40.905Z,17.94
2022-10-30T09:55:40.902Z,17.97
2022-10-30T09:56:40.896Z,18.16
2022-10-30T09:57:40.889Z,18.16
2022-10-30T09:58:40.891Z,18.25
2022-10-30T09:59:40.899Z,18.31
2022-10-30T10:00:40.867Z,18.37
2022-10-30T10:01:40.959Z,18.34
2022-10-30T10:02:40.953Z,18.13
2022-10-30T10:03:40.910Z,18.18
2022-10-30T10:04:40.858Z,18.08
2022-10-30T10:05:40.831Z,18.15
2022-10-30T10:06:40.826Z,18.23
2022-10-30T10:07:40.816Z,18.33
2022-10-30T10:08:40.808Z,18.38
2022-10-30T10:09:40.868Z,18.26
2022-10-30T10:10:40.792Z,18.25
2022-10-30T10:11:40.788Z,18.18
2022-10-30T10:12:40.781Z,18.31
2022-10-30T10:13:40.770Z,18.40
2022-10-30T10:14:40.787Z,18.49
2022-10-30T10:15:40.752Z,18.73
2022-10-30T10:16:40.751Z,18.71
2022-10-30T10:17:40.738Z,18.65
2022-10-30T10:18:40.741Z,18.62
2022-10-30T10:19:40.749Z,18.66
2022-10-30T10:20:40.708Z,18.77
2022-10-30T10:21:41.705Z,18.84
2022-10-30T10:22:40.702Z,18.89
2022-10-30T10:23:40.694Z,18.84
2022-10-30T10:24:40.708Z,18.96
2022-10-30T10:25:40.675Z,18.86
2022-10-30T10:26:40.673Z,18.88
2022-10-30T10:27:40.662Z,18.96
2022-10-30T10:28:40.652Z,18.96
2022-10-30T10:29:40.671Z,19.16
2022-10-30T10:30:40.647Z,19.15
2022-10-30T10:31:40.636Z,19.36
2022-10-30T10:32:40.629Z,19.39
2022-10-30T10:33:40.615Z,19.37
2022-10-30T10:34:40.681Z,19.34
2022-10-30T10:35:40.609Z,19.15
2022-10-30T10:36:40.592Z,19.19
2022-10-30T10:37:40.588Z,19.33
2022-10-30T10:38:40.575Z,19.31
2022-10-30T10:39:40.603Z,19.39
2022-10-30T10:40:40.561Z,19.54
2022-10-30T10:41:40.555Z,19.69
2022-10-30T10:42:40.547Z,19.76
2022-10-30T10:43:40.545Z,19.95
2022-10-30T10:44:40.559Z,19.85
2022-10-30T10:45:40.532Z,19.96
2022-10-30T10:46:40.513Z,20.02
2022-10-30T10:47:40.510Z,20.10
2022-10-30T10:48:40.513Z,20.03
2022-10-30T10:49:40.527Z,20.03
2022-10-30T10:50:40.487Z,19.96
2022-10-30T10:51:40.478Z,20.02
2022-10-30T10:52:40.473Z,20.11
2022-10-30T10:53:40.468Z,20.28
2022-10-30T10:54:40.456Z,20.34
2022-10-30T10:55:40.479Z,20.41
2022-10-30T10:56:40.441Z,20.39
2022-10-30T10:57:40.434Z,20.48
2022-10-30T10:58:40.426Z,20.52
2022-10-30T10:59:40.450Z,20.59
2022-10-30T11:00:40.407Z,20.51
2022-10-30T11:01:40.551Z,20.55
2022-10-30T11:02:40.456Z,20.66
2022-10-30T11:03:40.392Z,20.58
2022-10-30T11:04:40.380Z,20.63
2022-10-30T11:05:40.403Z,20.60
2022-10-30T11:06:40.370Z,20.72
2022-10-30T11:07:40.361Z,20.72
2022-10-30T11:08:40.350Z,20.82
2022-10-30T11:09:40.348Z,20.78
2022-10-30T11:10:40.362Z,20.84
2022-10-30T11:11:40.327Z,20.78
2022-10-30T11:12:40.319Z,20.85
2022-10-30T11:13:40.315Z,20.96
2022-10-30T11:14:40.307Z,20.88
2022-10-30T11:15:40.327Z,21.05
2022-10-30T11:16:40.289Z,21.11
2022-10-30T11:17:40.285Z,21.20
2022-10-30T11:18:40.269Z,21.24
2022-10-30T11:19:40.273Z,21.11
2022-10-30T11:20:40.291Z,21.15
2022-10-30T11:21:40.256Z,21.22
2022-10-30T11:22:40.248Z,21.25
2022-10-30T11:23:40.249Z,21.33
2022-10-30T11:24:40.225Z,21.40
2022-10-30T11:25:40.247Z,21.35
2022-10-30T11:26:40.215Z,21.51
2022-10-30T11:27:40.203Z,21.52
2022-10-30T11:28:40.196Z,21.58
2022-10-30T11:29:40.192Z,21.58
2022-10-30T11:30:40.227Z,21.69
2022-10-30T11:31:40.230Z,21.69
2022-10-30T11:32:40.188Z,21.72
2022-10-30T11:33:40.164Z,21.69
2022-10-30T11:34:40.153Z,21.72
2022-10-30T11:35:40.170Z,21.72
2022-10-30T11:36:40.143Z,21.85
2022-10-30T11:37:40.131Z,21.88
2022-10-30T11:38:40.127Z,21.89
2022-10-30T11:39:40.117Z,21.96
2022-10-30T11:40:40.135Z,22.06
2022-10-30T11:41:40.101Z,22.00
2022-10-30T11:42:40.091Z,21.98
2022-10-30T11:43:40.081Z,21.98
2022-10-30T11:44:40.076Z,22.06
2022-10-30T11:45:40.104Z,21.95
2022-10-30T11:46:40.061Z,21.96
2022-10-30T11:47:40.071Z,21.93
2022-10-30T11:48:40.046Z,21.93
2022-10-30T11:49:40.044Z,22.02
2022-10-30T11:50:40.061Z,22.07
2022-10-30T11:51:40.104Z,22.07
2022-10-30T11:52:40.018Z,22.14
2022-10-30T11:53:40.038Z,22.25
2022-10-30T11:54:40.004Z,22.35
2022-10-30T11:55:40.026Z,22.22
2022-10-30T11:56:40.008Z,22.18
2022-10-30T11:57:39.981Z,22.28
2022-10-30T11:58:39.973Z,22.30
2022-10-30T11:59:39.966Z,22.25
2022-10-30T12:00:39.962Z,22.36
2022-10-30T12:01:40.032Z,22.36
2022-10-30T12:02:39.945Z,22.35
2022-10-30T12:03:39.934Z,22.44
2022-10-30T12:04:39.925Z,22.36
2022-10-30T12:05:41.644Z,22.53
2022-10-30T12:06:39.909Z,22.38
2022-10-30T12:07:39.900Z,22.57
2022-10-30T12:08:39.888Z,22.55
2022-10-30T12:09:39.882Z,22.62
2022-10-30T12:10:39.871Z,22.75
2022-10-30T12:11:39.896Z,22.73
2022-10-30T12:12:39.857Z,22.68
2022-10-30T12:13:39.863Z,22.65
2022-10-30T12:14:39.852Z,22.66
2022-10-30T12:15:39.848Z,22.72
2022-10-30T12:16:39.861Z,22.73
2022-10-30T12:17:39.820Z,22.72
2022-10-30T12:18:39.814Z,22.88
2022-10-30T12:19:39.808Z,22.85
2022-10-30T12:20:39.804Z,22.84
2022-10-30T12:21:39.833Z,22.85
2022-10-30T12:22:39.786Z,22.90
2022-10-30T12:23:39.780Z,23.03
2022-10-30T12:24:39.812Z,22.96
2022-10-30T12:25:39.764Z,22.99
2022-10-30T12:26:39.786Z,23.06
2022-10-30T12:27:39.744Z,23.02
2022-10-30T12:28:39.743Z,22.94
2022-10-30T12:30:06.873Z,23.02
2022-10-30T12:30:41.731Z,23.09
2022-10-30T12:31:39.742Z,23.06
2022-10-30T12:32:39.870Z,23.10
2022-10-30T12:33:39.702Z,23.08
2022-10-30T12:34:39.700Z,23.13
2022-10-30T12:35:39.687Z,23.12
2022-10-30T12:36:39.707Z,23.10
2022-10-30T12:37:39.673Z,23.17
2022-10-30T12:38:39.703Z,23.18
2022-10-30T12:39:39.658Z,23.23
2022-10-30T12:40:39.653Z,23.21
2022-10-30T12:41:39.667Z,23.12
2022-10-30T12:42:39.643Z,23.08
2022-10-30T12:43:39.641Z,23.10
2022-10-30T12:44:39.622Z,23.10
2022-10-30T12:45:39.613Z,23.23
2022-10-30T12:46:39.634Z,23.24
2022-10-30T12:47:39.595Z,23.24
2022-10-30T12:48:39.589Z,23.32
2022-10-30T12:49:39.583Z,23.28
2022-10-30T12:50:39.638Z,23.28
2022-10-30T12:51:39.600Z,23.25
2022-10-30T12:52:39.564Z,23.23
2022-10-30T12:53:39.564Z,23.17
2022-10-30T12:54:39.550Z,23.21
2022-10-30T12:55:39.542Z,23.24
2022-10-30T12:56:39.559Z,23.20
2022-10-30T12:57:39.529Z,23.23
2022-10-30T12:58:39.536Z,23.23
2022-10-30T12:59:39.516Z,23.24
2022-10-30T13:00:39.505Z,23.24
2022-10-30T13:01:39.660Z,23.23